Orlando, Florida
Traffic Map
Current Weather Conditions
Orlando, Florida
Clear
Clear
81°
Feels Like: 84°
Wind Chill: 81° Ceiling: Unl
Heat Index: 84° Visibility: 10mi
Dew Point: 70° Wind: 16mph
Humidity: 69% Direction: 80° (E)
Pressure: 30.12in Gusts: 0mph
Raw Report DataKORL 222353Z 08014KT 10SM CLR 27/21 A3012 RMK AO2 SLP201 T02720211 10350 20272 53019
Traffic Incident Summary
Active as of:
Severity:
Category:
InformationThere was an issue retrieving the traffic information for this location. Please try a different location or try again shortly.
Advertisements
Track Severe Weather on mobile